sensor_id;sensor_type;location;lat;lon;timestamp;P1;durP1;ratioP1;P2;durP2;ratioP2
70303;SDS011;57712;48.752;11.348;2023-01-19T00:00:53;18.88;;;8.43;;
70303;SDS011;57712;48.752;11.348;2023-01-19T00:03:20;17.33;;;8.52;;
70303;SDS011;57712;48.752;11.348;2023-01-19T00:05:46;19.92;;;9.23;;
70303;SDS011;57712;48.752;11.348;2023-01-19T00:08:13;21.42;;;9.63;;
70303;SDS011;57712;48.752;11.348;2023-01-19T00:10:40;21.97;;;9.37;;
70303;SDS011;57712;48.752;11.348;2023-01-19T00:13:12;21.67;;;9.68;;
70303;SDS011;57712;48.752;11.348;2023-01-19T00:15:40;19.73;;;10.10;;
70303;SDS011;57712;48.752;11.348;2023-01-19T00:18:06;20.52;;;10.40;;
70303;SDS011;57712;48.752;11.348;2023-01-19T00:20:35;23.27;;;10.38;;
70303;SDS011;57712;48.752;11.348;2023-01-19T00:23:02;21.20;;;10.30;;
70303;SDS011;57712;48.752;11.348;2023-01-19T00:25:30;22.25;;;10.30;;
70303;SDS011;57712;48.752;11.348;2023-01-19T00:27:59;19.65;;;11.20;;
70303;SDS011;57712;48.752;11.348;2023-01-19T00:30:27;23.50;;;10.82;;
70303;SDS011;57712;48.752;11.348;2023-01-19T00:32:53;20.70;;;10.77;;
70303;SDS011;57712;48.752;11.348;2023-01-19T00:35:20;23.23;;;11.90;;
70303;SDS011;57712;48.752;11.348;2023-01-19T00:37:47;21.40;;;11.13;;
70303;SDS011;57712;48.752;11.348;2023-01-19T00:40:14;23.85;;;11.93;;
70303;SDS011;57712;48.752;11.348;2023-01-19T00:42:41;23.65;;;12.38;;
70303;SDS011;57712;48.752;11.348;2023-01-19T00:45:12;23.63;;;12.93;;
70303;SDS011;57712;48.752;11.348;2023-01-19T00:47:40;24.07;;;12.27;;
70303;SDS011;57712;48.752;11.348;2023-01-19T00:50:08;26.38;;;13.60;;
70303;SDS011;57712;48.752;11.348;2023-01-19T00:52:40;25.92;;;13.10;;
70303;SDS011;57712;48.752;11.348;2023-01-19T00:55:07;26.17;;;14.07;;
70303;SDS011;57712;48.752;11.348;2023-01-19T00:57:35;27.13;;;14.73;;
70303;SDS011;57712;48.752;11.348;2023-01-19T01:00:03;29.67;;;16.30;;
70303;SDS011;57712;48.752;11.348;2023-01-19T01:02:31;27.85;;;15.38;;
70303;SDS011;57712;48.752;11.348;2023-01-19T01:04:58;28.80;;;16.17;;
70303;SDS011;57712;48.752;11.348;2023-01-19T01:07:28;29.35;;;15.63;;
70303;SDS011;57712;48.752;11.348;2023-01-19T01:09:55;29.27;;;15.93;;
70303;SDS011;57712;48.752;11.348;2023-01-19T01:12:22;28.27;;;15.80;;
70303;SDS011;57712;48.752;11.348;2023-01-19T01:14:49;27.23;;;14.20;;
70303;SDS011;57712;48.752;11.348;2023-01-19T01:17:16;23.15;;;13.20;;
70303;SDS011;57712;48.752;11.348;2023-01-19T01:19:42;24.05;;;13.60;;
70303;SDS011;57712;48.752;11.348;2023-01-19T01:22:09;24.35;;;12.43;;
70303;SDS011;57712;48.752;11.348;2023-01-19T01:24:35;23.07;;;12.10;;
70303;SDS011;57712;48.752;11.348;2023-01-19T01:27:02;23.80;;;12.02;;
70303;SDS011;57712;48.752;11.348;2023-01-19T01:29:29;22.00;;;11.10;;
70303;SDS011;57712;48.752;11.348;2023-01-19T01:31:55;23.50;;;11.02;;
70303;SDS011;57712;48.752;11.348;2023-01-19T01:34:22;24.17;;;11.65;;
70303;SDS011;57712;48.752;11.348;2023-01-19T01:36:48;23.17;;;11.20;;
70303;SDS011;57712;48.752;11.348;2023-01-19T01:39:15;21.92;;;11.65;;
70303;SDS011;57712;48.752;11.348;2023-01-19T01:41:41;24.02;;;11.77;;
70303;SDS011;57712;48.752;11.348;2023-01-19T01:50:10;24.00;;;11.70;;
70303;SDS011;57712;48.752;11.348;2023-01-19T01:52:45;23.60;;;11.70;;
70303;SDS011;57712;48.752;11.348;2023-01-19T01:55:33;25.73;;;12.25;;
70303;SDS011;57712;48.752;11.348;2023-01-19T01:58:03;25.45;;;12.10;;
70303;SDS011;57712;48.752;11.348;2023-01-19T02:00:33;23.58;;;12.63;;
70303;SDS011;57712;48.752;11.348;2023-01-19T02:03:19;24.80;;;12.17;;
70303;SDS011;57712;48.752;11.348;2023-01-19T02:05:48;25.25;;;12.30;;
70303;SDS011;57712;48.752;11.348;2023-01-19T02:08:17;26.95;;;12.60;;
70303;SDS011;57712;48.752;11.348;2023-01-19T02:11:08;23.17;;;12.02;;
70303;SDS011;57712;48.752;11.348;2023-01-19T02:13:54;24.73;;;12.20;;
70303;SDS011;57712;48.752;11.348;2023-01-19T02:16:21;26.73;;;13.07;;
70303;SDS011;57712;48.752;11.348;2023-01-19T02:18:48;26.60;;;12.40;;
70303;SDS011;57712;48.752;11.348;2023-01-19T02:23:50;24.20;;;12.32;;
70303;SDS011;57712;48.752;11.348;2023-01-19T02:26:39;24.27;;;13.02;;
70303;SDS011;57712;48.752;11.348;2023-01-19T02:29:07;24.07;;;12.40;;
70303;SDS011;57712;48.752;11.348;2023-01-19T02:31:37;23.05;;;11.98;;
70303;SDS011;57712;48.752;11.348;2023-01-19T02:34:05;25.00;;;12.82;;
70303;SDS011;57712;48.752;11.348;2023-01-19T02:36:36;25.27;;;12.70;;
70303;SDS011;57712;48.752;11.348;2023-01-19T02:39:06;25.02;;;12.75;;
70303;SDS011;57712;48.752;11.348;2023-01-19T02:41:37;22.20;;;11.73;;
70303;SDS011;57712;48.752;11.348;2023-01-19T02:44:07;24.30;;;12.07;;
70303;SDS011;57712;48.752;11.348;2023-01-19T02:46:35;23.77;;;12.07;;
70303;SDS011;57712;48.752;11.348;2023-01-19T02:49:02;25.85;;;11.95;;
70303;SDS011;57712;48.752;11.348;2023-01-19T02:51:29;22.55;;;12.25;;
70303;SDS011;57712;48.752;11.348;2023-01-19T03:05:33;22.75;;;12.68;;
70303;SDS011;57712;48.752;11.348;2023-01-19T03:11:04;23.70;;;11.75;;
70303;SDS011;57712;48.752;11.348;2023-01-19T03:13:40;22.15;;;11.85;;
70303;SDS011;57712;48.752;11.348;2023-01-19T03:16:23;24.15;;;12.10;;
70303;SDS011;57712;48.752;11.348;2023-01-19T03:21:49;20.20;;;10.67;;
70303;SDS011;57712;48.752;11.348;2023-01-19T03:24:20;22.42;;;11.40;;
70303;SDS011;57712;48.752;11.348;2023-01-19T03:26:56;22.60;;;11.20;;
70303;SDS011;57712;48.752;11.348;2023-01-19T03:29:30;22.35;;;11.20;;
70303;SDS011;57712;48.752;11.348;2023-01-19T03:32:01;22.25;;;11.25;;
70303;SDS011;57712;48.752;11.348;2023-01-19T03:34:31;22.57;;;10.57;;
70303;SDS011;57712;48.752;11.348;2023-01-19T03:37:02;20.98;;;11.00;;
70303;SDS011;57712;48.752;11.348;2023-01-19T03:39:29;20.00;;;11.20;;
70303;SDS011;57712;48.752;11.348;2023-01-19T03:42:07;21.73;;;11.77;;
70303;SDS011;57712;48.752;11.348;2023-01-19T03:44:36;22.63;;;10.95;;
70303;SDS011;57712;48.752;11.348;2023-01-19T03:47:05;21.90;;;11.00;;
70303;SDS011;57712;48.752;11.348;2023-01-19T03:49:35;23.98;;;10.73;;
70303;SDS011;57712;48.752;11.348;2023-01-19T03:52:03;23.48;;;11.10;;
70303;SDS011;57712;48.752;11.348;2023-01-19T03:54:30;22.00;;;11.32;;
70303;SDS011;57712;48.752;11.348;2023-01-19T03:56:57;21.63;;;11.32;;
70303;SDS011;57712;48.752;11.348;2023-01-19T03:59:23;21.50;;;11.33;;
70303;SDS011;57712;48.752;11.348;2023-01-19T04:01:50;21.25;;;11.10;;
70303;SDS011;57712;48.752;11.348;2023-01-19T04:04:16;21.70;;;11.00;;
70303;SDS011;57712;48.752;11.348;2023-01-19T04:06:43;23.10;;;11.57;;
70303;SDS011;57712;48.752;11.348;2023-01-19T04:09:09;24.25;;;11.10;;
70303;SDS011;57712;48.752;11.348;2023-01-19T04:11:36;21.50;;;10.67;;
70303;SDS011;57712;48.752;11.348;2023-01-19T04:14:03;22.58;;;11.13;;
70303;SDS011;57712;48.752;11.348;2023-01-19T04:16:29;20.27;;;10.32;;
70303;SDS011;57712;48.752;11.348;2023-01-19T04:18:56;22.65;;;10.43;;
70303;SDS011;57712;48.752;11.348;2023-01-19T04:21:22;21.63;;;10.77;;
70303;SDS011;57712;48.752;11.348;2023-01-19T04:23:49;25.70;;;11.30;;
70303;SDS011;57712;48.752;11.348;2023-01-19T04:26:15;23.38;;;11.48;;
70303;SDS011;57712;48.752;11.348;2023-01-19T04:28:42;23.25;;;11.43;;
70303;SDS011;57712;48.752;11.348;2023-01-19T04:31:09;25.00;;;12.00;;
70303;SDS011;57712;48.752;11.348;2023-01-19T04:33:35;22.13;;;11.07;;
70303;SDS011;57712;48.752;11.348;2023-01-19T04:36:02;22.77;;;11.53;;
70303;SDS011;57712;48.752;11.348;2023-01-19T04:38:29;25.05;;;11.73;;
70303;SDS011;57712;48.752;11.348;2023-01-19T04:40:55;23.15;;;11.60;;
70303;SDS011;57712;48.752;11.348;2023-01-19T04:43:22;26.20;;;12.45;;
70303;SDS011;57712;48.752;11.348;2023-01-19T04:45:49;23.67;;;11.75;;
70303;SDS011;57712;48.752;11.348;2023-01-19T04:48:16;24.33;;;11.40;;
70303;SDS011;57712;48.752;11.348;2023-01-19T04:50:44;24.67;;;12.15;;
70303;SDS011;57712;48.752;11.348;2023-01-19T04:53:11;21.83;;;10.82;;
70303;SDS011;57712;48.752;11.348;2023-01-19T04:55:38;24.33;;;12.15;;
70303;SDS011;57712;48.752;11.348;2023-01-19T04:58:05;20.92;;;10.57;;
70303;SDS011;57712;48.752;11.348;2023-01-19T05:00:32;20.80;;;10.50;;
70303;SDS011;57712;48.752;11.348;2023-01-19T05:02:58;22.38;;;11.25;;
70303;SDS011;57712;48.752;11.348;2023-01-19T05:05:27;24.05;;;11.85;;
70303;SDS011;57712;48.752;11.348;2023-01-19T05:07:53;23.50;;;10.95;;
70303;SDS011;57712;48.752;11.348;2023-01-19T05:10:20;22.27;;;10.63;;
70303;SDS011;57712;48.752;11.348;2023-01-19T05:12:47;19.97;;;9.90;;
70303;SDS011;57712;48.752;11.348;2023-01-19T05:15:13;21.83;;;10.00;;
70303;SDS011;57712;48.752;11.348;2023-01-19T05:17:39;21.00;;;10.85;;
70303;SDS011;57712;48.752;11.348;2023-01-19T05:20:08;21.73;;;11.07;;
70303;SDS011;57712;48.752;11.348;2023-01-19T05:22:37;21.33;;;11.23;;
70303;SDS011;57712;48.752;11.348;2023-01-19T05:25:07;22.80;;;11.33;;
70303;SDS011;57712;48.752;11.348;2023-01-19T05:27:35;22.52;;;11.35;;
70303;SDS011;57712;48.752;11.348;2023-01-19T05:30:04;21.30;;;10.30;;
70303;SDS011;57712;48.752;11.348;2023-01-19T05:32:31;21.17;;;10.55;;
70303;SDS011;57712;48.752;11.348;2023-01-19T05:34:58;22.60;;;11.07;;
70303;SDS011;57712;48.752;11.348;2023-01-19T05:37:24;21.47;;;11.30;;
70303;SDS011;57712;48.752;11.348;2023-01-19T05:39:51;25.35;;;12.38;;
70303;SDS011;57712;48.752;11.348;2023-01-19T05:42:18;23.10;;;12.82;;
70303;SDS011;57712;48.752;11.348;2023-01-19T05:44:44;23.95;;;12.00;;
70303;SDS011;57712;48.752;11.348;2023-01-19T05:47:11;23.67;;;12.52;;
70303;SDS011;57712;48.752;11.348;2023-01-19T05:49:38;25.80;;;12.37;;
70303;SDS011;57712;48.752;11.348;2023-01-19T05:52:04;22.48;;;11.13;;
70303;SDS011;57712;48.752;11.348;2023-01-19T05:54:31;22.02;;;11.13;;
70303;SDS011;57712;48.752;11.348;2023-01-19T05:56:58;23.05;;;11.05;;
70303;SDS011;57712;48.752;11.348;2023-01-19T05:59:24;20.27;;;10.60;;
70303;SDS011;57712;48.752;11.348;2023-01-19T06:01:51;23.20;;;12.13;;
70303;SDS011;57712;48.752;11.348;2023-01-19T06:04:18;21.75;;;10.85;;
70303;SDS011;57712;48.752;11.348;2023-01-19T06:06:46;22.25;;;10.88;;
70303;SDS011;57712;48.752;11.348;2023-01-19T06:09:13;21.80;;;10.73;;
70303;SDS011;57712;48.752;11.348;2023-01-19T06:11:39;21.35;;;10.75;;
70303;SDS011;57712;48.752;11.348;2023-01-19T06:14:07;21.13;;;10.00;;
70303;SDS011;57712;48.752;11.348;2023-01-19T06:16:35;22.70;;;10.30;;
70303;SDS011;57712;48.752;11.348;2023-01-19T06:19:02;23.35;;;10.85;;
70303;SDS011;57712;48.752;11.348;2023-01-19T06:21:28;21.63;;;10.68;;
70303;SDS011;57712;48.752;11.348;2023-01-19T06:23:55;23.52;;;11.43;;
70303;SDS011;57712;48.752;11.348;2023-01-19T06:26:21;25.03;;;11.47;;
70303;SDS011;57712;48.752;11.348;2023-01-19T06:28:49;23.40;;;11.15;;
70303;SDS011;57712;48.752;11.348;2023-01-19T06:31:17;22.20;;;10.38;;
70303;SDS011;57712;48.752;11.348;2023-01-19T06:33:44;22.10;;;10.95;;
70303;SDS011;57712;48.752;11.348;2023-01-19T06:36:12;21.75;;;11.05;;
70303;SDS011;57712;48.752;11.348;2023-01-19T06:38:38;19.93;;;10.67;;
70303;SDS011;57712;48.752;11.348;2023-01-19T06:41:05;24.88;;;11.35;;
70303;SDS011;57712;48.752;11.348;2023-01-19T06:43:32;22.60;;;11.35;;
70303;SDS011;57712;48.752;11.348;2023-01-19T06:45:58;24.92;;;11.25;;
70303;SDS011;57712;48.752;11.348;2023-01-19T06:48:29;23.38;;;11.40;;
70303;SDS011;57712;48.752;11.348;2023-01-19T06:50:55;23.80;;;11.07;;
70303;SDS011;57712;48.752;11.348;2023-01-19T06:53:24;21.70;;;10.93;;
70303;SDS011;57712;48.752;11.348;2023-01-19T06:55:53;23.65;;;11.20;;
70303;SDS011;57712;48.752;11.348;2023-01-19T06:58:28;20.90;;;11.13;;
70303;SDS011;57712;48.752;11.348;2023-01-19T07:00:59;22.50;;;11.48;;
70303;SDS011;57712;48.752;11.348;2023-01-19T07:03:29;24.97;;;11.53;;
70303;SDS011;57712;48.752;11.348;2023-01-19T07:05:57;24.75;;;11.15;;
70303;SDS011;57712;48.752;11.348;2023-01-19T07:08:27;26.67;;;11.07;;
70303;SDS011;57712;48.752;11.348;2023-01-19T07:11:13;24.33;;;10.55;;
70303;SDS011;57712;48.752;11.348;2023-01-19T07:13:55;27.67;;;11.77;;
70303;SDS011;57712;48.752;11.348;2023-01-19T07:16:22;22.60;;;10.83;;
70303;SDS011;57712;48.752;11.348;2023-01-19T07:18:48;23.25;;;10.77;;
70303;SDS011;57712;48.752;11.348;2023-01-19T07:21:15;26.63;;;11.20;;
70303;SDS011;57712;48.752;11.348;2023-01-19T07:23:42;22.98;;;11.00;;
70303;SDS011;57712;48.752;11.348;2023-01-19T07:26:09;22.02;;;10.80;;
70303;SDS011;57712;48.752;11.348;2023-01-19T07:28:37;21.43;;;10.80;;
70303;SDS011;57712;48.752;11.348;2023-01-19T07:31:03;24.00;;;10.60;;
70303;SDS011;57712;48.752;11.348;2023-01-19T07:33:30;20.73;;;10.10;;
70303;SDS011;57712;48.752;11.348;2023-01-19T07:35:57;22.48;;;10.77;;
70303;SDS011;57712;48.752;11.348;2023-01-19T07:38:23;49.05;;;21.67;;
70303;SDS011;57712;48.752;11.348;2023-01-19T07:40:50;22.53;;;10.50;;
70303;SDS011;57712;48.752;11.348;2023-01-19T07:43:17;62.15;;;25.17;;
70303;SDS011;57712;48.752;11.348;2023-01-19T07:45:43;29.95;;;14.18;;
70303;SDS011;57712;48.752;11.348;2023-01-19T07:48:10;23.58;;;11.00;;
70303;SDS011;57712;48.752;11.348;2023-01-19T07:50:37;57.65;;;32.33;;
70303;SDS011;57712;48.752;11.348;2023-01-19T07:53:07;28.77;;;14.50;;
70303;SDS011;57712;48.752;11.348;2023-01-19T07:55:34;20.77;;;10.48;;
70303;SDS011;57712;48.752;11.348;2023-01-19T07:58:00;25.88;;;13.25;;
70303;SDS011;57712;48.752;11.348;2023-01-19T08:00:30;26.15;;;13.95;;
70303;SDS011;57712;48.752;11.348;2023-01-19T08:02:59;26.05;;;12.43;;
70303;SDS011;57712;48.752;11.348;2023-01-19T08:05:27;25.80;;;13.60;;
70303;SDS011;57712;48.752;11.348;2023-01-19T08:07:55;23.42;;;12.25;;
70303;SDS011;57712;48.752;11.348;2023-01-19T08:10:25;23.67;;;13.20;;
70303;SDS011;57712;48.752;11.348;2023-01-19T08:12:53;21.08;;;11.35;;
70303;SDS011;57712;48.752;11.348;2023-01-19T08:15:21;33.22;;;23.10;;
70303;SDS011;57712;48.752;11.348;2023-01-19T08:17:54;23.17;;;10.73;;
70303;SDS011;57712;48.752;11.348;2023-01-19T08:20:21;21.73;;;9.98;;
70303;SDS011;57712;48.752;11.348;2023-01-19T08:22:48;20.77;;;10.13;;
70303;SDS011;57712;48.752;11.348;2023-01-19T08:25:15;21.40;;;11.63;;
70303;SDS011;57712;48.752;11.348;2023-01-19T08:27:41;26.58;;;14.32;;
70303;SDS011;57712;48.752;11.348;2023-01-19T08:30:08;22.97;;;11.27;;
70303;SDS011;57712;48.752;11.348;2023-01-19T08:32:35;23.70;;;11.48;;
70303;SDS011;57712;48.752;11.348;2023-01-19T08:35:02;27.77;;;15.40;;
70303;SDS011;57712;48.752;11.348;2023-01-19T08:37:29;22.63;;;10.88;;
70303;SDS011;57712;48.752;11.348;2023-01-19T08:39:57;30.27;;;21.75;;
70303;SDS011;57712;48.752;11.348;2023-01-19T08:42:23;27.00;;;18.90;;
70303;SDS011;57712;48.752;11.348;2023-01-19T08:44:50;26.10;;;18.83;;
70303;SDS011;57712;48.752;11.348;2023-01-19T08:47:23;20.23;;;10.65;;
70303;SDS011;57712;48.752;11.348;2023-01-19T08:49:50;21.10;;;10.68;;
70303;SDS011;57712;48.752;11.348;2023-01-19T08:52:16;22.55;;;11.65;;
70303;SDS011;57712;48.752;11.348;2023-01-19T08:54:43;20.17;;;9.50;;
70303;SDS011;57712;48.752;11.348;2023-01-19T08:57:09;20.25;;;10.70;;
70303;SDS011;57712;48.752;11.348;2023-01-19T08:59:35;22.92;;;11.52;;
70303;SDS011;57712;48.752;11.348;2023-01-19T09:02:03;20.05;;;10.20;;
70303;SDS011;57712;48.752;11.348;2023-01-19T09:04:29;22.83;;;10.00;;
70303;SDS011;57712;48.752;11.348;2023-01-19T09:06:58;20.50;;;9.83;;
70303;SDS011;57712;48.752;11.348;2023-01-19T09:09:24;18.48;;;9.32;;
70303;SDS011;57712;48.752;11.348;2023-01-19T09:11:52;19.00;;;9.80;;
70303;SDS011;57712;48.752;11.348;2023-01-19T09:14:19;19.98;;;9.30;;
70303;SDS011;57712;48.752;11.348;2023-01-19T09:16:46;21.33;;;11.30;;
70303;SDS011;57712;48.752;11.348;2023-01-19T09:19:12;17.73;;;9.10;;
70303;SDS011;57712;48.752;11.348;2023-01-19T09:21:39;19.83;;;9.45;;
70303;SDS011;57712;48.752;11.348;2023-01-19T09:24:06;18.02;;;9.57;;
70303;SDS011;57712;48.752;11.348;2023-01-19T09:26:34;19.33;;;9.30;;
70303;SDS011;57712;48.752;11.348;2023-01-19T09:29:01;19.02;;;8.45;;
70303;SDS011;57712;48.752;11.348;2023-01-19T09:31:28;19.70;;;9.07;;
70303;SDS011;57712;48.752;11.348;2023-01-19T09:33:55;19.00;;;9.88;;
70303;SDS011;57712;48.752;11.348;2023-01-19T09:36:21;17.70;;;10.00;;
70303;SDS011;57712;48.752;11.348;2023-01-19T09:38:48;21.98;;;9.63;;
70303;SDS011;57712;48.752;11.348;2023-01-19T09:41:16;17.08;;;8.65;;
70303;SDS011;57712;48.752;11.348;2023-01-19T09:46:26;17.23;;;8.57;;
70303;SDS011;57712;48.752;11.348;2023-01-19T09:49:00;15.35;;;8.45;;
70303;SDS011;57712;48.752;11.348;2023-01-19T09:51:37;19.88;;;11.20;;
70303;SDS011;57712;48.752;11.348;2023-01-19T09:57:01;16.00;;;9.10;;
70303;SDS011;57712;48.752;11.348;2023-01-19T09:59:31;23.23;;;11.00;;
70303;SDS011;57712;48.752;11.348;2023-01-19T10:02:05;18.27;;;8.65;;
70303;SDS011;57712;48.752;11.348;2023-01-19T10:04:42;19.30;;;8.77;;
70303;SDS011;57712;48.752;11.348;2023-01-19T10:10:41;16.87;;;8.50;;
70303;SDS011;57712;48.752;11.348;2023-01-19T10:15:49;20.35;;;9.57;;
70303;SDS011;57712;48.752;11.348;2023-01-19T10:18:24;15.23;;;6.85;;
70303;SDS011;57712;48.752;11.348;2023-01-19T10:21:09;15.25;;;7.78;;
70303;SDS011;57712;48.752;11.348;2023-01-19T10:26:15;14.80;;;7.47;;
70303;SDS011;57712;48.752;11.348;2023-01-19T10:28:47;15.65;;;7.78;;
70303;SDS011;57712;48.752;11.348;2023-01-19T10:31:17;14.98;;;7.43;;
70303;SDS011;57712;48.752;11.348;2023-01-19T10:33:48;18.25;;;8.40;;
70303;SDS011;57712;48.752;11.348;2023-01-19T10:36:24;14.60;;;7.53;;
70303;SDS011;57712;48.752;11.348;2023-01-19T10:38:52;14.10;;;7.15;;
70303;SDS011;57712;48.752;11.348;2023-01-19T10:44:09;15.05;;;7.45;;
70303;SDS011;57712;48.752;11.348;2023-01-19T10:46:40;13.27;;;7.55;;
70303;SDS011;57712;48.752;11.348;2023-01-19T10:49:22;15.50;;;7.03;;
70303;SDS011;57712;48.752;11.348;2023-01-19T10:51:49;15.15;;;7.78;;
70303;SDS011;57712;48.752;11.348;2023-01-19T10:54:16;14.70;;;8.18;;
70303;SDS011;57712;48.752;11.348;2023-01-19T10:56:44;15.27;;;8.23;;
70303;SDS011;57712;48.752;11.348;2023-01-19T10:59:28;13.65;;;7.00;;
70303;SDS011;57712;48.752;11.348;2023-01-19T11:04:35;14.13;;;7.72;;
70303;SDS011;57712;48.752;11.348;2023-01-19T11:07:12;29.83;;;16.02;;
70303;SDS011;57712;48.752;11.348;2023-01-19T11:09:39;13.45;;;7.30;;
70303;SDS011;57712;48.752;11.348;2023-01-19T11:12:07;15.27;;;7.32;;
70303;SDS011;57712;48.752;11.348;2023-01-19T11:14:42;15.53;;;7.60;;
70303;SDS011;57712;48.752;11.348;2023-01-19T11:17:15;14.15;;;7.57;;
70303;SDS011;57712;48.752;11.348;2023-01-19T11:19:56;15.60;;;8.85;;
70303;SDS011;57712;48.752;11.348;2023-01-19T11:22:26;20.35;;;10.80;;
70303;SDS011;57712;48.752;11.348;2023-01-19T11:24:58;13.30;;;6.43;;
70303;SDS011;57712;48.752;11.348;2023-01-19T11:27:27;15.47;;;8.27;;
70303;SDS011;57712;48.752;11.348;2023-01-19T11:32:46;11.38;;;6.25;;
70303;SDS011;57712;48.752;11.348;2023-01-19T11:35:31;13.30;;;6.88;;
70303;SDS011;57712;48.752;11.348;2023-01-19T11:38:23;12.52;;;6.10;;
70303;SDS011;57712;48.752;11.348;2023-01-19T11:40:55;12.80;;;7.00;;
70303;SDS011;57712;48.752;11.348;2023-01-19T11:43:26;12.85;;;6.70;;
70303;SDS011;57712;48.752;11.348;2023-01-19T11:46:13;12.00;;;6.40;;
70303;SDS011;57712;48.752;11.348;2023-01-19T11:49:02;12.73;;;5.50;;
70303;SDS011;57712;48.752;11.348;2023-01-19T11:51:33;12.90;;;6.43;;
70303;SDS011;57712;48.752;11.348;2023-01-19T11:54:08;11.57;;;6.07;;
70303;SDS011;57712;48.752;11.348;2023-01-19T11:56:44;12.43;;;7.47;;
70303;SDS011;57712;48.752;11.348;2023-01-19T11:59:13;13.05;;;7.07;;
70303;SDS011;57712;48.752;11.348;2023-01-19T12:01:43;11.25;;;6.38;;
70303;SDS011;57712;48.752;11.348;2023-01-19T12:04:18;13.05;;;6.60;;
70303;SDS011;57712;48.752;11.348;2023-01-19T12:06:53;11.43;;;6.47;;
70303;SDS011;57712;48.752;11.348;2023-01-19T12:09:23;11.30;;;6.25;;
70303;SDS011;57712;48.752;11.348;2023-01-19T12:12:13;12.60;;;7.22;;
70303;SDS011;57712;48.752;11.348;2023-01-19T12:15:06;11.25;;;5.63;;
70303;SDS011;57712;48.752;11.348;2023-01-19T12:17:44;9.25;;;5.45;;
70303;SDS011;57712;48.752;11.348;2023-01-19T12:25:49;11.55;;;6.38;;
70303;SDS011;57712;48.752;11.348;2023-01-19T12:28:20;10.00;;;5.88;;
70303;SDS011;57712;48.752;11.348;2023-01-19T12:30:52;10.98;;;5.50;;
70303;SDS011;57712;48.752;11.348;2023-01-19T12:35:52;11.73;;;6.68;;
70303;SDS011;57712;48.752;11.348;2023-01-19T12:38:22;13.50;;;6.00;;
70303;SDS011;57712;48.752;11.348;2023-01-19T12:40:49;11.98;;;6.50;;
70303;SDS011;57712;48.752;11.348;2023-01-19T12:43:30;9.63;;;5.43;;
70303;SDS011;57712;48.752;11.348;2023-01-19T12:45:57;14.70;;;6.27;;
70303;SDS011;57712;48.752;11.348;2023-01-19T12:48:23;13.18;;;6.32;;
70303;SDS011;57712;48.752;11.348;2023-01-19T12:50:52;13.75;;;5.97;;
70303;SDS011;57712;48.752;11.348;2023-01-19T12:53:19;11.75;;;5.70;;
70303;SDS011;57712;48.752;11.348;2023-01-19T12:55:56;13.05;;;6.47;;
70303;SDS011;57712;48.752;11.348;2023-01-19T12:58:25;12.57;;;6.47;;
70303;SDS011;57712;48.752;11.348;2023-01-19T13:01:12;13.57;;;6.53;;
70303;SDS011;57712;48.752;11.348;2023-01-19T13:03:43;16.40;;;7.07;;
70303;SDS011;57712;48.752;11.348;2023-01-19T13:09:29;14.02;;;6.78;;
70303;SDS011;57712;48.752;11.348;2023-01-19T13:14:41;13.32;;;6.53;;
70303;SDS011;57712;48.752;11.348;2023-01-19T13:17:22;12.55;;;6.60;;
70303;SDS011;57712;48.752;11.348;2023-01-19T13:20:04;11.98;;;6.28;;
70303;SDS011;57712;48.752;11.348;2023-01-19T13:22:48;13.82;;;6.53;;
70303;SDS011;57712;48.752;11.348;2023-01-19T13:25:26;16.63;;;6.93;;
70303;SDS011;57712;48.752;11.348;2023-01-19T13:27:59;12.65;;;6.45;;
70303;SDS011;57712;48.752;11.348;2023-01-19T13:30:27;16.48;;;6.80;;
70303;SDS011;57712;48.752;11.348;2023-01-19T13:33:05;16.02;;;7.28;;
70303;SDS011;57712;48.752;11.348;2023-01-19T13:35:46;13.07;;;6.95;;
70303;SDS011;57712;48.752;11.348;2023-01-19T13:38:16;15.60;;;7.10;;
70303;SDS011;57712;48.752;11.348;2023-01-19T13:40:43;14.48;;;7.85;;
70303;SDS011;57712;48.752;11.348;2023-01-19T13:43:15;17.17;;;8.25;;
70303;SDS011;57712;48.752;11.348;2023-01-19T13:45:46;15.25;;;7.75;;
70303;SDS011;57712;48.752;11.348;2023-01-19T13:48:19;13.80;;;6.95;;
70303;SDS011;57712;48.752;11.348;2023-01-19T13:53:23;13.52;;;7.10;;
70303;SDS011;57712;48.752;11.348;2023-01-19T13:58:35;12.50;;;6.68;;
70303;SDS011;57712;48.752;11.348;2023-01-19T14:01:02;15.20;;;8.43;;
70303;SDS011;57712;48.752;11.348;2023-01-19T14:03:28;16.43;;;8.13;;
70303;SDS011;57712;48.752;11.348;2023-01-19T14:05:55;14.20;;;6.53;;
70303;SDS011;57712;48.752;11.348;2023-01-19T14:08:22;13.48;;;6.43;;
70303;SDS011;57712;48.752;11.348;2023-01-19T14:13:18;16.38;;;6.70;;
70303;SDS011;57712;48.752;11.348;2023-01-19T14:15:46;11.00;;;6.07;;
70303;SDS011;57712;48.752;11.348;2023-01-19T14:20:51;14.23;;;6.30;;
70303;SDS011;57712;48.752;11.348;2023-01-19T14:23:39;15.15;;;6.97;;
70303;SDS011;57712;48.752;11.348;2023-01-19T14:29:32;12.50;;;6.17;;
70303;SDS011;57712;48.752;11.348;2023-01-19T14:32:09;14.63;;;5.95;;
70303;SDS011;57712;48.752;11.348;2023-01-19T14:34:40;11.07;;;5.15;;
70303;SDS011;57712;48.752;11.348;2023-01-19T14:39:48;11.68;;;5.57;;
70303;SDS011;57712;48.752;11.348;2023-01-19T14:42:31;10.40;;;4.90;;
70303;SDS011;57712;48.752;11.348;2023-01-19T14:45:02;11.07;;;4.32;;
70303;SDS011;57712;48.752;11.348;2023-01-19T14:47:36;10.15;;;4.78;;
70303;SDS011;57712;48.752;11.348;2023-01-19T14:50:22;9.63;;;4.53;;
70303;SDS011;57712;48.752;11.348;2023-01-19T14:52:59;12.52;;;3.78;;
70303;SDS011;57712;48.752;11.348;2023-01-19T14:55:37;11.13;;;4.17;;
70303;SDS011;57712;48.752;11.348;2023-01-19T14:58:13;11.07;;;5.10;;
70303;SDS011;57712;48.752;11.348;2023-01-19T15:00:42;12.68;;;5.03;;
70303;SDS011;57712;48.752;11.348;2023-01-19T15:03:09;11.43;;;4.95;;
70303;SDS011;57712;48.752;11.348;2023-01-19T15:05:36;12.20;;;5.68;;
70303;SDS011;57712;48.752;11.348;2023-01-19T15:08:09;12.63;;;5.10;;
70303;SDS011;57712;48.752;11.348;2023-01-19T15:10:50;10.60;;;4.57;;
70303;SDS011;57712;48.752;11.348;2023-01-19T15:13:19;12.38;;;4.60;;
70303;SDS011;57712;48.752;11.348;2023-01-19T15:15:48;10.27;;;5.00;;
70303;SDS011;57712;48.752;11.348;2023-01-19T15:18:16;10.77;;;5.10;;
70303;SDS011;57712;48.752;11.348;2023-01-19T15:20:46;11.00;;;4.43;;
70303;SDS011;57712;48.752;11.348;2023-01-19T15:23:12;12.45;;;4.78;;
70303;SDS011;57712;48.752;11.348;2023-01-19T15:25:39;11.00;;;4.90;;
70303;SDS011;57712;48.752;11.348;2023-01-19T15:28:09;11.70;;;5.45;;
70303;SDS011;57712;48.752;11.348;2023-01-19T15:30:38;12.77;;;4.90;;
70303;SDS011;57712;48.752;11.348;2023-01-19T15:33:05;21.83;;;9.27;;
70303;SDS011;57712;48.752;11.348;2023-01-19T15:35:31;13.25;;;5.82;;
70303;SDS011;57712;48.752;11.348;2023-01-19T15:37:58;12.15;;;6.20;;
70303;SDS011;57712;48.752;11.348;2023-01-19T15:40:25;17.58;;;7.15;;
70303;SDS011;57712;48.752;11.348;2023-01-19T15:42:51;17.08;;;7.28;;
70303;SDS011;57712;48.752;11.348;2023-01-19T15:45:34;18.03;;;8.90;;
70303;SDS011;57712;48.752;11.348;2023-01-19T15:48:04;12.82;;;6.57;;